Time;durP1;ratioP1;P1;durP2;ratioP2;P2;SDS_P1;SDS_P2;PMS_P1;PMS_P2;Temp;Humidity;BMP_temperature;BMP_pressure;BME280_temperature;BME280_humidity;BME280_pressure;Samples;Min_cycle;Max_cycle;Signal;HPM_P1;HPM_P2
2022/01/18 00:04:14;;;;;;;56.05;38.83;;;6.70;86.00;;;;;;10752380;33;20016;-70
2022/01/18 00:10:16;;;;;;;71.85;51.30;;;6.60;86.50;;;;;;10752005;33;20314;-73
2022/01/18 00:16:49;;;;;;;74.45;54.03;;;6.50;86.30;;;;;;10751591;33;20374;-73
2022/01/18 00:22:51;;;;;;;75.30;49.97;;;6.20;86.00;;;;;;10751286;33;20106;-73
2022/01/18 00:28:59;;;;;;;69.72;46.47;;;6.20;86.80;;;;;;10747038;33;20054;-73
2022/01/18 00:35:01;;;;;;;50.70;34.92;;;6.20;86.70;;;;;;10750294;33;20083;-73
2022/01/18 00:41:22;;;;;;;52.53;40.50;;;6.10;86.20;;;;;;10750666;33;20025;-74
2022/01/18 00:47:24;;;;;;;88.93;65.55;;;6.00;86.40;;;;;;10753951;33;20025;-74
2022/01/18 00:53:31;;;;;;;75.10;52.42;;;6.00;85.90;;;;;;10753930;33;20051;-74
2022/01/18 00:59:33;;;;;;;60.33;43.08;;;5.80;86.30;;;;;;10753896;33;20017;-73
2022/01/18 01:05:35;;;;;;;44.50;31.80;;;6.00;86.80;;;;;;10741928;33;20021;-73
2022/01/18 01:11:39;;;;;;;41.15;27.75;;;6.20;86.40;;;;;;10753519;33;20329;-73
2022/01/18 01:18:05;;;;;;;42.15;30.58;;;6.20;86.20;;;;;;10753269;33;20086;-70
2022/01/18 01:37:14;;;;;;;56.83;39.60;;;6.10;86.10;;;;;;10752746;33;20047;-69
2022/01/18 01:43:30;;;;;;;43.45;33.45;;;6.10;86.20;;;;;;10760607;27;20031;-70
2022/01/18 01:49:32;;;;;;;55.85;40.40;;;6.00;86.60;;;;;;10788935;33;20025;-70
2022/01/18 01:55:35;;;;;;;68.05;45.20;;;6.10;86.60;;;;;;10775630;33;20020;-70
2022/01/18 02:01:46;;;;;;;40.40;29.20;;;6.10;86.60;;;;;;10788585;33;20055;-70
2022/01/18 02:07:48;;;;;;;39.67;27.45;;;6.00;86.20;;;;;;10788422;33;20047;-70
2022/01/18 02:13:50;;;;;;;51.17;36.65;;;5.90;86.40;;;;;;10788311;33;20036;-70
2022/01/18 02:26:13;;;;;;;52.17;38.03;;;5.90;86.00;;;;;;10788007;33;20427;-70
2022/01/18 02:32:15;;;;;;;41.78;30.98;;;5.90;85.90;;;;;;10787700;33;20027;-70
2022/01/18 02:38:17;;;;;;;39.42;30.35;;;5.90;86.00;;;;;;10783696;33;20016;-70
2022/01/18 02:44:20;;;;;;;49.42;34.22;;;6.00;85.60;;;;;;10787596;33;20021;-70
2022/01/18 02:50:22;;;;;;;42.92;30.98;;;6.10;85.40;;;;;;10787474;33;20047;-70
2022/01/18 02:56:26;;;;;;;53.08;36.17;;;6.10;85.00;;;;;;10787369;33;20316;-70
2022/01/18 03:08:49;;;;;;;44.65;31.85;;;6.20;85.10;;;;;;10793514;33;20361;-70
2022/01/18 03:14:51;;;;;;;42.15;29.50;;;6.50;85.00;;;;;;10793203;33;20064;-70
2022/01/18 03:20:54;;;;;;;46.03;30.77;;;6.50;84.60;;;;;;10780147;32;20032;-70
2022/01/18 03:33:18;;;;;;;47.08;35.35;;;6.60;84.30;;;;;;10793514;33;20024;-70
2022/01/18 03:39:21;;;;;;;40.03;27.08;;;6.70;84.20;;;;;;10792685;33;20029;-73
2022/01/18 03:45:30;;;;;;;43.30;33.95;;;6.80;84.00;;;;;;10792501;33;20042;-73
2022/01/18 03:51:33;;;;;;;43.10;32.75;;;6.50;83.80;;;;;;10792250;33;20024;-73
2022/01/18 03:57:36;;;;;;;41.08;30.20;;;6.70;84.20;;;;;;10792110;33;20024;-73
2022/01/18 04:03:38;;;;;;;43.58;30.20;;;6.70;85.00;;;;;;10789915;33;20054;-73
2022/01/18 04:09:40;;;;;;;42.72;30.55;;;7.00;84.60;;;;;;10790778;33;20043;-72
2022/01/18 04:15:43;;;;;;;40.45;27.35;;;6.80;84.00;;;;;;10791522;33;20044;-72
2022/01/18 04:34:38;;;;;;;40.10;30.35;;;7.20;83.30;;;;;;10643338;32;20064;-73
2022/01/18 04:40:44;;;;;;;44.30;29.95;;;7.30;83.30;;;;;;10642168;32;20075;-73
2022/01/18 04:53:06;;;;;;;34.22;25.05;;;7.20;82.30;;;;;;10642493;33;20050;-73
2022/01/18 04:59:10;;;;;;;39.95;29.05;;;7.10;81.90;;;;;;10642771;33;20149;-73
2022/01/18 05:05:24;;;;;;;32.13;24.50;;;7.20;81.60;;;;;;10642583;33;20321;-73
2022/01/18 05:11:28;;;;;;;36.25;28.95;;;7.30;81.50;;;;;;10763548;33;20074;-73
2022/01/18 05:17:59;;;;;;;39.33;27.40;;;7.40;82.10;;;;;;10789868;33;20024;-73
2022/01/18 05:24:01;;;;;;;33.58;25.02;;;7.40;81.60;;;;;;10789375;33;20052;-73
2022/01/18 05:30:04;;;;;;;27.42;20.50;;;6.80;81.40;;;;;;10789406;33;20043;-73
2022/01/18 05:36:06;;;;;;;44.30;32.42;;;6.30;81.30;;;;;;10789087;33;20024;-73
2022/01/18 05:42:11;;;;;;;36.00;25.20;;;5.80;82.60;;;;;;10789149;33;20349;-73
2022/01/18 05:48:13;;;;;;;40.95;29.75;;;6.20;82.50;;;;;;10788948;33;20020;-73
2022/01/18 05:54:15;;;;;;;43.75;30.33;;;6.00;81.50;;;;;;10788618;33;20032;-73
2022/01/18 06:00:22;;;;;;;40.38;29.37;;;6.10;82.10;;;;;;10787329;33;20381;-73
2022/01/18 06:06:51;;;;;;;36.83;27.10;;;6.50;81.70;;;;;;10773511;33;20329;-73
2022/01/18 06:12:53;;;;;;;37.83;27.40;;;6.60;81.20;;;;;;10775267;33;20028;-73
2022/01/18 06:19:24;;;;;;;32.53;21.83;;;6.30;80.60;;;;;;10787399;33;20381;-73
2022/01/18 06:25:26;;;;;;;33.38;24.00;;;6.20;81.30;;;;;;10771365;33;20028;-73
2022/01/18 06:31:55;;;;;;;41.27;30.40;;;6.50;80.90;;;;;;10787578;33;20032;-73
2022/01/18 06:37:58;;;;;;;37.08;26.45;;;6.80;81.30;;;;;;10785332;33;20047;-73
2022/01/18 06:44:07;;;;;;;41.53;29.05;;;7.00;81.00;;;;;;10794074;33;20024;-73
2022/01/18 06:50:13;;;;;;;31.65;23.58;;;7.10;81.10;;;;;;10789893;33;20024;-73
2022/01/18 06:56:17;;;;;;;30.23;21.25;;;7.00;80.40;;;;;;10790578;33;20409;-73
2022/01/18 07:02:19;;;;;;;28.92;20.75;;;6.80;79.50;;;;;;10793176;33;20021;-73
2022/01/18 07:08:21;;;;;;;28.17;21.17;;;6.10;80.10;;;;;;10793156;33;20377;-73
2022/01/18 07:14:24;;;;;;;40.40;29.60;;;5.90;80.30;;;;;;10790993;33;20055;-73
2022/01/18 07:20:26;;;;;;;41.65;29.12;;;5.60;80.90;;;;;;10791975;33;20051;-72
2022/01/18 07:26:47;;;;;;;33.30;21.58;;;5.60;81.00;;;;;;10792303;33;20043;-72
2022/01/18 07:32:49;;;;;;;29.42;20.50;;;5.80;81.30;;;;;;10791991;33;20454;-72
2022/01/18 07:38:52;;;;;;;28.70;21.20;;;5.70;81.10;;;;;;10790524;33;20068;-72
2022/01/18 07:44:55;;;;;;;28.55;22.55;;;5.90;81.10;;;;;;10776646;32;20071;-72
2022/01/18 07:51:01;;;;;;;44.03;30.83;;;6.10;80.90;;;;;;10791836;33;20028;-72
2022/01/18 07:57:37;;;;;;;31.48;25.62;;;6.40;80.40;;;;;;10831594;32;20326;-70
2022/01/18 08:03:39;;;;;;;32.72;24.67;;;6.70;80.20;;;;;;10827625;32;20397;-70
2022/01/18 08:09:41;;;;;;;36.63;27.13;;;6.90;80.10;;;;;;10821616;32;20067;-70
2022/01/18 08:15:44;;;;;;;30.10;22.52;;;7.10;79.90;;;;;;10825060;32;20039;-70
2022/01/18 08:21:46;;;;;;;35.22;24.60;;;7.20;79.40;;;;;;10830721;32;20166;-70
2022/01/18 08:27:48;;;;;;;29.27;22.90;;;7.20;79.80;;;;;;10830868;32;20065;-70
2022/01/18 08:33:50;;;;;;;31.73;25.23;;;7.30;79.70;;;;;;10804024;32;20043;-70
2022/01/18 08:39:52;;;;;;;30.83;22.50;;;7.40;79.80;;;;;;10785473;33;20055;-70
2022/01/18 08:45:55;;;;;;;27.35;21.83;;;7.60;79.80;;;;;;10780912;33;20028;-70
2022/01/18 08:52:16;;;;;;;28.55;22.15;;;7.30;80.10;;;;;;10767196;33;20017;-71
2022/01/18 08:58:20;;;;;;;30.23;21.85;;;7.30;80.80;;;;;;10775849;33;20032;-72
2022/01/18 09:04:23;;;;;;;34.10;26.52;;;7.40;81.30;;;;;;10763346;33;20396;-72
2022/01/18 09:10:36;;;;;;;24.45;18.37;;;7.40;81.40;;;;;;10772483;33;20413;-72
2022/01/18 09:16:39;;;;;;;30.95;22.40;;;7.50;81.30;;;;;;10773696;33;20288;-72
2022/01/18 09:22:45;;;;;;;23.67;17.25;;;7.70;81.70;;;;;;10780639;33;20310;-72
2022/01/18 09:28:48;;;;;;;22.87;17.48;;;7.80;81.70;;;;;;10789026;33;20024;-73
2022/01/18 09:34:51;;;;;;;24.08;16.52;;;7.80;81.90;;;;;;10784986;33;20028;-73
2022/01/18 09:40:53;;;;;;;17.62;12.77;;;7.90;82.10;;;;;;10209533;33;18134345;-73
2022/01/18 09:46:56;;;;;;;15.27;11.38;;;8.10;82.20;;;;;;10773448;33;20036;-73
2022/01/18 09:52:59;;;;;;;22.50;15.52;;;8.20;82.20;;;;;;10784854;33;20032;-72
2022/01/18 09:59:03;;;;;;;11.93;9.00;;;8.30;82.30;;;;;;10762967;32;20048;-72
2022/01/18 10:05:25;;;;;;;16.98;12.45;;;8.40;82.50;;;;;;10784566;33;20031;-73
2022/01/18 10:11:28;;;;;;;25.70;14.50;;;8.60;82.50;;;;;;10763045;33;20066;-73
2022/01/18 10:17:39;;;;;;;15.15;12.32;;;8.70;82.80;;;;;;10788015;33;20025;-73
2022/01/18 10:23:49;;;;;;;14.85;9.70;;;8.70;82.80;;;;;;10787740;33;20046;-73
2022/01/18 10:29:51;;;;;;;18.60;13.90;;;8.80;82.30;;;;;;10787922;33;20035;-72
2022/01/18 10:36:12;;;;;;;20.77;12.73;;;8.80;82.60;;;;;;10787885;33;20321;-72
2022/01/18 10:42:36;;;;;;;18.30;12.65;;;8.90;82.40;;;;;;10787498;33;20020;-72
2022/01/18 10:48:58;;;;;;;18.33;13.50;;;9.10;82.10;;;;;;10787484;33;20024;-72
2022/01/18 10:55:01;;;;;;;21.90;16.27;;;9.20;81.10;;;;;;10787131;33;20028;-72
2022/01/18 11:01:17;;;;;;;26.87;19.27;;;9.20;80.80;;;;;;10787032;33;20047;-72
2022/01/18 11:07:28;;;;;;;19.70;13.95;;;9.30;80.90;;;;;;10787033;33;20016;-72
2022/01/18 11:13:34;;;;;;;17.25;13.23;;;9.50;80.60;;;;;;10785525;33;20029;-72
2022/01/18 11:19:38;;;;;;;21.25;14.27;;;9.60;80.10;;;;;;10782515;33;20415;-72
2022/01/18 11:25:41;;;;;;;18.30;14.68;;;9.80;79.90;;;;;;10790367;33;20013;-72
2022/01/18 11:31:51;;;;;;;17.27;11.68;;;10.20;79.50;;;;;;10792819;33;20052;-71
2022/01/18 11:38:21;;;;;;;19.67;12.35;;;10.40;79.70;;;;;;10792648;33;20028;-72
2022/01/18 11:44:27;;;;;;;24.17;13.05;;;10.70;79.50;;;;;;10779794;32;20016;-72
2022/01/18 11:51:05;;;;;;;15.95;10.90;;;10.80;79.10;;;;;;10791864;33;20337;-72
2022/01/18 11:58:01;;;;;;;18.02;9.88;;;11.10;79.70;;;;;;10794134;32;20025;-72
2022/01/18 12:04:03;;;;;;;18.87;9.82;;;11.30;78.70;;;;;;10790005;33;20055;-73
2022/01/18 12:10:26;;;;;;;12.70;9.10;;;11.40;78.50;;;;;;10791598;33;20009;-73
2022/01/18 12:16:29;;;;;;;11.00;6.60;;;11.40;78.60;;;;;;10763335;33;20029;-72
2022/01/18 12:23:07;;;;;;;16.60;8.85;;;11.30;78.80;;;;;;10764096;32;20381;-72
2022/01/18 12:35:28;;;;;;;11.18;8.20;;;11.30;77.90;;;;;;10751905;32;20436;-71
2022/01/18 12:41:40;;;;;;;11.65;5.87;;;11.20;77.30;;;;;;10774257;32;20041;-71
2022/01/18 12:47:47;;;;;;;11.90;8.35;;;11.20;77.10;;;;;;10776662;33;20383;-71
2022/01/18 12:53:49;;;;;;;10.00;6.30;;;11.20;77.60;;;;;;10789577;32;20401;-71
2022/01/18 13:00:04;;;;;;;10.25;8.00;;;11.30;77.40;;;;;;10777024;33;20025;-70
2022/01/18 13:06:11;;;;;;;8.55;4.85;;;11.50;76.80;;;;;;10776846;33;20017;-70
2022/01/18 13:12:13;;;;;;;10.05;6.50;;;11.50;77.00;;;;;;10762378;33;20020;-70
2022/01/18 13:30:49;;;;;;;11.50;8.40;;;11.80;77.20;;;;;;10786372;33;20397;-70
2022/01/18 13:37:13;;;;;;;15.07;10.13;;;11.80;76.80;;;;;;10788269;33;20047;-70
2022/01/18 13:43:16;;;;;;;15.52;8.57;;;11.90;77.40;;;;;;10788472;33;20392;-71
2022/01/18 13:49:24;;;;;;;10.27;6.72;;;12.00;77.30;;;;;;10775386;33;20020;-71
2022/01/18 13:55:27;;;;;;;15.93;8.43;;;12.10;78.00;;;;;;10788487;33;20024;-71
2022/01/18 14:01:42;;;;;;;9.43;6.65;;;12.10;78.40;;;;;;10788480;33;20013;-71
2022/01/18 14:07:44;;;;;;;8.65;5.55;;;12.00;78.00;;;;;;10788465;33;20320;-71
2022/01/18 14:13:47;;;;;;;7.72;4.93;;;12.00;78.40;;;;;;10787989;33;20047;-71
2022/01/18 14:19:59;;;;;;;10.63;4.68;;;12.20;78.20;;;;;;10788157;33;20074;-71
2022/01/18 14:26:19;;;;;;;7.18;3.70;;;12.30;78.00;;;;;;10787189;33;20047;-71
2022/01/18 14:32:21;;;;;;;;;;;12.80;78.30;;;;;;10787429;33;20020;-71
2022/01/18 14:38:32;;;;;;;13.80;4.05;;;13.10;77.70;;;;;;10788110;33;19955;-71
2022/01/18 14:50:57;;;;;;;6.15;3.40;;;13.40;78.40;;;;;;10708144;33;20048;-71
2022/01/18 14:56:59;;;;;;;11.38;5.10;;;13.20;78.60;;;;;;10685193;33;20052;-71
2022/01/18 15:03:02;;;;;;;11.82;5.30;;;13.60;77.90;;;;;;10708003;33;20040;-71
2022/01/18 15:09:04;;;;;;;9.20;4.53;;;13.40;78.20;;;;;;10700556;33;20122;-70
2022/01/18 15:15:07;;;;;;;7.50;4.60;;;13.00;78.80;;;;;;10717462;33;20041;-71
2022/01/18 15:21:10;;;;;;;8.30;4.93;;;12.90;79.30;;;;;;10714751;33;20021;-70
2022/01/18 15:27:12;;;;;;;10.68;5.07;;;13.10;78.80;;;;;;10767610;33;20036;-70
2022/01/18 15:33:14;;;;;;;6.47;4.40;;;13.10;78.70;;;;;;10792814;33;20360;-70
2022/01/18 15:39:16;;;;;;;6.45;4.00;;;13.10;78.70;;;;;;10792746;33;20058;-70
2022/01/18 15:45:18;;;;;;;11.55;5.57;;;12.80;78.90;;;;;;10792525;33;20036;-72
2022/01/18 15:51:21;;;;;;;19.62;6.25;;;12.50;79.40;;;;;;10792024;33;20059;-73
2022/01/18 15:57:23;;;;;;;12.65;5.40;;;12.10;79.70;;;;;;10790952;33;20036;-73
2022/01/18 16:03:25;;;;;;;7.55;4.70;;;11.80;80.00;;;;;;10790462;33;20051;-70
2022/01/18 16:09:29;;;;;;;7.50;4.25;;;11.60;80.10;;;;;;10791609;33;20121;-70
2022/01/18 16:15:49;;;;;;;8.98;5.37;;;11.30;80.20;;;;;;10778660;33;20032;-70
2022/01/18 16:21:51;;;;;;;11.55;4.87;;;11.10;80.40;;;;;;10718969;32;20398;-70
2022/01/18 16:27:53;;;;;;;7.93;4.82;;;11.00;80.50;;;;;;10702365;32;20393;-70
2022/01/18 16:33:55;;;;;;;7.30;4.35;;;10.90;80.40;;;;;;10713511;32;20071;-70
2022/01/18 16:40:19;;;;;;;11.70;6.45;;;10.70;80.40;;;;;;10714980;32;20033;-70
2022/01/18 16:46:22;;;;;;;9.98;6.47;;;10.60;80.30;;;;;;10714472;33;20072;-70
2022/01/18 16:52:24;;;;;;;11.07;6.72;;;10.50;80.30;;;;;;10771070;33;20047;-70
2022/01/18 16:58:26;;;;;;;8.77;5.65;;;10.40;80.30;;;;;;10790479;33;20306;-70
2022/01/18 17:04:28;;;;;;;11.55;5.97;;;10.30;80.30;;;;;;10790356;33;20032;-70
2022/01/18 17:10:30;;;;;;;8.93;5.82;;;10.30;80.30;;;;;;10789529;33;20434;-70
2022/01/18 17:16:48;;;;;;;10.50;5.53;;;10.20;80.20;;;;;;10776611;33;20071;-70
2022/01/18 17:22:50;;;;;;;11.88;4.78;;;10.20;80.20;;;;;;10788173;33;20024;-70
2022/01/18 17:28:52;;;;;;;13.10;6.78;;;9.90;80.50;;;;;;10789608;33;20020;-70
2022/01/18 17:34:54;;;;;;;9.85;5.82;;;9.70;80.90;;;;;;10788818;33;20070;-70
2022/01/18 17:40:58;;;;;;;7.97;5.62;;;9.70;80.70;;;;;;10793935;27;20072;-70
2022/01/18 17:47:00;;;;;;;14.85;7.62;;;9.70;80.50;;;;;;10789191;33;20043;-70
2022/01/18 17:53:04;;;;;;;15.55;9.10;;;9.60;80.50;;;;;;10787301;33;20033;-72
2022/01/18 17:59:06;;;;;;;11.25;7.32;;;9.60;80.50;;;;;;10788917;33;20328;-72
2022/01/18 18:05:09;;;;;;;10.48;7.15;;;9.50;80.70;;;;;;10788491;33;20052;-70
2022/01/18 18:11:11;;;;;;;11.45;7.03;;;9.50;80.60;;;;;;10785377;33;20302;-70
2022/01/18 18:17:14;;;;;;;11.73;7.43;;;9.40;80.60;;;;;;10787809;33;20054;-70
2022/01/18 18:23:17;;;;;;;10.73;7.10;;;9.30;80.50;;;;;;10788368;33;20031;-70
2022/01/18 18:29:19;;;;;;;9.32;6.75;;;9.20;80.50;;;;;;10785867;33;20024;-70
2022/01/18 18:35:22;;;;;;;8.68;5.70;;;9.20;80.60;;;;;;10784432;33;20058;-70
2022/01/18 18:41:30;;;;;;;8.70;5.57;;;9.20;80.50;;;;;;10787852;33;20056;-70
2022/01/18 18:47:33;;;;;;;8.47;5.57;;;9.10;80.70;;;;;;10784472;33;20020;-70
2022/01/18 18:53:35;;;;;;;15.10;8.07;;;9.00;80.60;;;;;;10787453;33;20028;-70
2022/01/18 18:59:55;;;;;;;11.68;6.95;;;8.80;80.60;;;;;;10786239;33;20051;-72
2022/01/18 19:05:59;;;;;;;10.43;5.50;;;8.80;80.70;;;;;;10786620;33;20024;-72
2022/01/18 19:12:01;;;;;;;13.27;7.93;;;8.70;80.50;;;;;;10786407;33;20046;-73
2022/01/18 19:18:03;;;;;;;9.00;6.00;;;8.60;80.80;;;;;;10786173;33;20044;-72
2022/01/18 19:24:06;;;;;;;10.25;6.72;;;8.60;80.70;;;;;;10786438;33;20046;-72
2022/01/18 19:30:11;;;;;;;10.02;6.72;;;8.60;80.50;;;;;;10784120;33;20033;-73
2022/01/18 19:36:15;;;;;;;14.48;8.55;;;8.50;80.60;;;;;;10836518;32;20059;-73
2022/01/18 19:42:25;;;;;;;14.45;9.05;;;8.50;80.40;;;;;;10783225;33;20047;-72
2022/01/18 19:48:30;;;;;;;15.43;10.73;;;8.50;80.60;;;;;;10791268;33;20051;-72
2022/01/18 19:54:32;;;;;;;21.42;15.60;;;8.50;80.40;;;;;;10842294;32;20032;-72
2022/01/18 20:00:37;;;;;;;20.05;15.70;;;8.50;80.40;;;;;;10791773;32;20051;-70
2022/01/18 20:06:39;;;;;;;19.70;16.10;;;8.30;80.60;;;;;;10790871;33;20403;-70
2022/01/18 20:12:41;;;;;;;37.17;22.25;;;8.20;81.00;;;;;;10791308;33;20040;-70
2022/01/18 20:18:48;;;;;;;25.77;18.15;;;8.10;81.10;;;;;;10841666;32;20098;-70
2022/01/18 20:24:52;;;;;;;22.77;17.95;;;8.20;81.20;;;;;;10790656;33;20046;-70
2022/01/18 20:30:58;;;;;;;26.92;19.35;;;8.00;81.10;;;;;;10841572;32;20064;-70
2022/01/18 20:37:01;;;;;;;21.67;16.92;;;7.90;81.20;;;;;;10853503;32;20046;-70
2022/01/18 20:49:44;;;;;;;21.77;14.68;;;8.00;80.80;;;;;;10789250;33;20062;-70
2022/01/18 20:55:54;;;;;;;21.98;14.73;;;8.00;80.70;;;;;;10789377;33;20029;-70
2022/01/18 21:02:19;;;;;;;23.02;14.48;;;7.90;80.60;;;;;;10789331;33;20051;-70
2022/01/18 21:08:21;;;;;;;20.62;14.98;;;7.90;80.40;;;;;;10777237;33;20016;-70
2022/01/18 21:14:37;;;;;;;20.77;14.75;;;7.90;80.30;;;;;;10789976;33;20396;-70
2022/01/18 21:20:40;;;;;;;21.50;15.85;;;7.90;80.30;;;;;;10790020;33;20177;-70
2022/01/18 21:26:42;;;;;;;21.92;16.42;;;7.80;80.20;;;;;;10789844;33;20409;-70
2022/01/18 21:32:44;;;;;;;25.97;19.17;;;7.80;80.10;;;;;;10789540;33;20064;-70
2022/01/18 21:39:11;;;;;;;25.10;17.12;;;7.70;80.30;;;;;;10776405;33;20021;-70
2022/01/18 21:45:14;;;;;;;26.27;19.77;;;7.70;80.40;;;;;;10785186;33;20038;-70
2022/01/18 21:51:26;;;;;;;24.48;18.67;;;7.60;80.20;;;;;;10789310;33;20020;-70
2022/01/18 21:57:29;;;;;;;24.77;17.52;;;7.50;80.00;;;;;;10788875;33;20055;-70
2022/01/18 22:03:35;;;;;;;21.42;15.98;;;7.30;80.10;;;;;;10775796;33;20020;-70
2022/01/18 22:09:38;;;;;;;19.25;16.27;;;7.30;80.20;;;;;;10788261;33;20024;-70
2022/01/18 22:15:40;;;;;;;23.00;16.25;;;7.30;80.10;;;;;;10787459;32;20031;-70
2022/01/18 22:21:42;;;;;;;24.63;20.23;;;7.20;80.10;;;;;;10788168;33;20043;-70
2022/01/18 22:27:45;;;;;;;26.08;19.42;;;7.20;80.00;;;;;;10788213;33;20052;-70
2022/01/18 22:33:53;;;;;;;22.05;16.20;;;7.20;80.00;;;;;;10787133;33;20020;-70
2022/01/18 22:39:55;;;;;;;21.87;16.73;;;7.10;80.00;;;;;;10784513;33;20059;-70
2022/01/18 22:45:57;;;;;;;23.05;16.35;;;7.00;80.00;;;;;;10774645;33;20043;-72
2022/01/18 22:52:00;;;;;;;22.75;16.75;;;6.80;80.40;;;;;;10787488;33;20036;-72
2022/01/18 22:58:03;;;;;;;28.98;19.20;;;6.90;80.30;;;;;;10787467;33;20348;-70
2022/01/18 23:04:05;;;;;;;25.35;20.92;;;6.90;80.20;;;;;;10785968;33;20024;-70
2022/01/18 23:10:08;;;;;;;28.17;22.45;;;6.90;80.10;;;;;;10787266;33;20028;-70
2022/01/18 23:16:10;;;;;;;23.87;19.42;;;6.80;80.00;;;;;;10787050;33;20389;-70
2022/01/18 23:22:12;;;;;;;36.03;26.85;;;6.80;79.90;;;;;;10791256;33;20020;-70
2022/01/18 23:28:16;;;;;;;35.15;27.98;;;6.70;80.10;;;;;;10793408;33;20462;-70
2022/01/18 23:34:18;;;;;;;36.67;23.70;;;6.80;80.10;;;;;;10793002;33;20055;-70
2022/01/18 23:46:44;;;;;;;40.42;28.25;;;6.60;79.90;;;;;;10642824;33;20150;-70
2022/01/18 23:52:46;;;;;;;36.95;27.95;;;6.60;80.00;;;;;;10643795;33;20393;-70
2022/01/18 23:58:49;;;;;;;28.08;22.33;;;6.60;80.10;;;;;;10644682;33;20056;-70
